KPHF METAR and TAF | Updated Today

KPHF METAR

Newport News Williamsburg International Airport

Observation time: 58 min. ago

KPHF 200754Z AUTO 36004KT 10SM CLR 01/M09 A3031 RMK AO2 SLP265 T00061089

Need help? Read our tutorial on how to read METARs or read the parsed version below.

Newport News Williamsburg International Airport (KPHF) METAR

  • Weather conditions on Mon, 20 Mar 2023 07:54:00 +0000 (58 min. ago):
  • Present conditions: Dry
  • Clouds: Clear skies
  • Visibility: 16093 meters
  • Wind: 360 degrees at 4 knots
  • Temperature: 1 celsius
  • Dew point: -9 celsius
  • Pressure: 30.31 inHg
  • Remarks: AO2 SLP265 T00061089


Useful to know...

KPHF TAF

Newport News Williamsburg International Airport

KPHF 200536Z 2006/2106 02004KT P6SM SCT250 FM201400 04007KT P6SM SCT250 FM210000 VRB02KT P6SM SKC
Observation time: 3:16 hr. ago
Need help? Read our tutorial on how to read TAFs or read the parsed version below.

Parsed version of TAF for Newport News Williamsburg International Airport (KPHF)

  • From 20 March at 06:00 UTC, to day 21 of the month at 06:00 UTC
  • Clouds: Scattered at 7620 meters
  • Wind: 20 degrees at 4
  • From day 20 of the month at 14:00 UTC
  • Clouds: Scattered at 7620 meters
  • Wind: 40 degrees at 7
  • From day 21 of the month at 00:00 UTC
  • Clouds: No significant changes expected
  • Wind: Variable at 2